Time;durP1;ratioP1;P1;durP2;ratioP2;P2;SDS_P1;SDS_P2;PMS_P1;PMS_P2;Temp;Humidity;BMP_temperature;BMP_pressure;BME280_temperature;BME280_humidity;BME280_pressure;Samples;Min_cycle;Max_cycle;Signal;HPM_P1;HPM_P2
2023/07/07 00:00:55;;;;;;;0.57;0.57;;;;;;;22.42;42.58;100989.28;4529182;28;20017;-60
2023/07/07 00:03:05;;;;;;;1.20;0.47;;;;;;;22.44;42.26;100994.72;4529941;28;20079;-60
2023/07/07 00:05:16;;;;;;;0.73;0.55;;;;;;;22.41;42.27;100995.41;4529245;28;20049;-60
2023/07/07 00:07:27;;;;;;;0.60;0.60;;;;;;;22.41;42.88;100996.28;4528802;28;20393;-60
2023/07/07 00:09:37;;;;;;;0.60;0.60;;;;;;;22.41;42.20;100995.41;4529509;28;20036;-60
2023/07/07 00:11:48;;;;;;;0.70;0.63;;;;;;;22.42;42.14;100997.13;4528677;28;20117;-60
2023/07/07 00:13:58;;;;;;;0.57;0.57;;;;;;;22.39;42.29;100992.91;4531277;28;20044;-60
2023/07/07 00:16:08;;;;;;;0.60;0.60;;;;;;;22.41;42.85;100990.50;4529232;28;20056;-61
2023/07/07 00:18:26;;;;;;;0.95;0.70;;;;;;;22.37;41.96;100991.63;4518403;28;20045;-60
2023/07/07 00:20:36;;;;;;;0.70;0.70;;;;;;;22.39;42.22;100989.22;4530411;28;20091;-60
2023/07/07 00:22:47;;;;;;;0.90;0.60;;;;;;;22.39;42.08;100995.78;4528439;28;20099;-60
2023/07/07 00:24:58;;;;;;;0.70;0.70;;;;;;;22.40;42.13;100999.50;4530094;28;20040;-60
2023/07/07 00:27:08;;;;;;;0.70;0.60;;;;;;;22.40;41.91;100996.63;4528153;28;20485;-60
2023/07/07 00:29:19;;;;;;;0.80;0.80;;;;;;;22.35;42.03;100985.41;4527985;28;20072;-60
2023/07/07 00:31:29;;;;;;;0.70;0.60;;;;;;;22.36;41.83;100995.72;4528495;28;20037;-60
2023/07/07 00:33:41;;;;;;;0.50;0.50;;;;;;;22.38;42.09;101002.75;4528971;28;20119;-60
2023/07/07 00:35:52;;;;;;;1.02;0.70;;;;;;;22.39;41.52;100994.97;4528401;28;20118;-60
2023/07/07 00:38:02;;;;;;;0.57;0.57;;;;;;;22.38;41.81;100996.16;4527721;28;20726;-60
2023/07/07 00:40:12;;;;;;;0.45;0.45;;;;;;;22.37;41.81;101003.97;4528792;28;20083;-60
2023/07/07 00:42:23;;;;;;;0.95;0.60;;;;;;;22.35;41.68;100997.75;4527111;28;20608;-60
2023/07/07 00:45:05;;;;;;;0.63;0.50;;;;;;;22.38;42.08;101002.75;4529183;28;20026;-60
2023/07/07 00:47:15;;;;;;;0.68;0.52;;;;;;;22.35;41.87;100999.78;4511278;28;20760;-60
2023/07/07 00:49:27;;;;;;;0.60;0.60;;;;;;;22.36;41.73;101004.34;4526893;28;20070;-60
2023/07/07 00:51:44;;;;;;;0.70;0.68;;;;;;;22.36;41.52;101002.28;4529772;28;20087;-60
2023/07/07 00:53:55;;;;;;;0.60;0.60;;;;;;;22.36;41.30;101004.34;4512485;28;20113;-60
2023/07/07 00:56:12;;;;;;;0.60;0.60;;;;;;;22.31;41.54;100999.69;4511157;28;20587;-60
2023/07/07 00:58:24;;;;;;;0.60;0.60;;;;;;;22.31;41.33;100996.00;4529172;28;20061;-60
2023/07/07 01:00:38;;;;;;;0.63;0.63;;;;;;;22.36;41.60;101010.09;4527398;28;20069;-60
2023/07/07 01:02:56;;;;;;;1.67;0.80;;;;;;;22.35;41.58;101009.25;4514851;28;20043;-60
2023/07/07 01:05:06;;;;;;;0.60;0.60;;;;;;;22.34;41.70;101012.50;4527686;28;20033;-60
2023/07/07 01:07:22;;;;;;;0.60;0.55;;;;;;;22.32;41.96;101012.03;4514718;28;20445;-60
2023/07/07 01:09:33;;;;;;;0.63;0.60;;;;;;;22.31;41.58;101014.06;4529032;28;20874;-60
2023/07/07 01:11:46;;;;;;;0.88;0.65;;;;;;;22.34;41.57;101010.47;4528060;28;20572;-60
2023/07/07 01:13:59;;;;;;;0.98;0.70;;;;;;;22.33;41.86;101008.78;4527119;28;20564;-60
2023/07/07 01:16:31;;;;;;;0.60;0.60;;;;;;;22.30;41.30;101006.66;4527773;28;20041;-60
2023/07/07 01:19:35;;;;;;;0.82;0.60;;;;;;;22.34;41.80;101007.59;4529504;28;20136;-60
2023/07/07 01:21:56;;;;;;;0.85;0.70;;;;;;;22.32;41.49;101003.41;4481218;28;20764;-60
2023/07/07 01:24:18;;;;;;;0.60;0.60;;;;;;;22.32;41.21;101012.03;4522517;28;20297;-60
2023/07/07 01:26:43;;;;;;;0.80;0.77;;;;;;;22.32;41.35;101003.41;4519081;28;20034;-59
2023/07/07 01:29:14;;;;;;;0.60;0.60;;;;;;;22.33;41.70;101002.19;4529034;28;20366;-60
2023/07/07 01:32:00;;;;;;;0.60;0.60;;;;;;;22.26;41.49;100993.38;4527366;28;20048;-60
2023/07/07 01:34:14;;;;;;;0.70;0.70;;;;;;;22.33;41.49;101007.94;4512144;28;20092;-61
2023/07/07 01:36:24;;;;;;;0.68;0.68;;;;;;;22.31;41.67;101007.50;4526453;28;20033;-61
2023/07/07 01:38:36;;;;;;;0.80;0.60;;;;;;;22.31;41.62;101004.63;4528357;28;20029;-61
2023/07/07 01:40:56;;;;;;;1.02;0.73;;;;;;;22.26;41.87;100994.22;4528141;28;20598;-60
2023/07/07 01:43:14;;;;;;;0.70;0.60;;;;;;;22.31;41.48;101001.75;4526356;28;20801;-60
2023/07/07 01:45:38;;;;;;;0.60;0.60;;;;;;;22.28;41.59;100990.97;4510459;28;20038;-61
2023/07/07 01:48:25;;;;;;;0.88;0.70;;;;;;;22.31;41.80;100996.00;4527434;28;20061;-60
2023/07/07 01:50:37;;;;;;;0.70;0.70;;;;;;;22.23;41.89;100978.53;4517784;28;20042;-60
2023/07/07 01:52:53;;;;;;;1.08;0.70;;;;;;;22.30;41.54;100988.53;4511367;28;20041;-60
2023/07/07 01:55:10;;;;;;;0.68;0.68;;;;;;;22.31;42.01;100996.00;4511706;28;20284;-60
2023/07/07 01:57:22;;;;;;;;;;;;;;;22.30;41.79;101005.81;4527766;28;20807;-61
2023/07/07 01:59:34;;;;;;;1.17;0.80;;;;;;;22.29;41.83;100992.63;4527767;28;20010;-60
2023/07/07 02:01:45;;;;;;;0.68;0.68;;;;;;;22.25;41.31;100985.97;4525311;28;20022;-60
2023/07/07 02:03:55;;;;;;;0.80;0.80;;;;;;;22.24;41.45;100985.13;4516706;28;20049;-60
2023/07/07 02:06:06;;;;;;;1.58;0.80;;;;;;;22.26;42.15;100987.63;4525591;28;20061;-60
2023/07/07 02:08:18;;;;;;;0.70;0.70;;;;;;;22.26;42.07;100979.00;4527280;28;20187;-60
2023/07/07 02:10:29;;;;;;;0.70;0.70;;;;;;;22.28;41.90;100988.91;4508292;28;20357;-60
2023/07/07 02:12:40;;;;;;;0.82;0.63;;;;;;;22.27;41.87;100984.38;4526851;28;20052;-60
2023/07/07 02:14:50;;;;;;;0.70;0.70;;;;;;;22.28;41.92;100990.97;4527370;28;20125;-60
2023/07/07 02:17:01;;;;;;;0.70;0.70;;;;;;;22.27;41.58;100987.25;4510703;28;20849;-60
2023/07/07 02:19:12;;;;;;;0.60;0.60;;;;;;;22.19;41.48;100974.75;4527769;28;20029;-60
2023/07/07 02:21:22;;;;;;;0.60;0.60;;;;;;;22.26;41.48;100987.63;4527596;28;20030;-60
2023/07/07 02:23:33;;;;;;;0.60;0.60;;;;;;;22.21;41.10;100974.38;4525434;28;20041;-60
2023/07/07 02:25:43;;;;;;;1.08;0.70;;;;;;;22.23;41.13;100984.28;4525943;28;20036;-60
2023/07/07 02:27:54;;;;;;;0.57;0.57;;;;;;;22.20;41.42;100981.31;4526725;28;20028;-60
2023/07/07 02:30:05;;;;;;;0.57;0.57;;;;;;;22.21;41.91;100978.06;4507679;28;20924;-60
2023/07/07 02:32:16;;;;;;;0.80;0.60;;;;;;;22.24;41.68;100990.88;4511744;28;20651;-61
2023/07/07 02:34:26;;;;;;;0.73;0.60;;;;;;;22.24;41.41;100990.88;4527099;28;20064;-60
2023/07/07 02:36:37;;;;;;;0.55;0.55;;;;;;;22.24;41.68;100985.13;4519289;28;20065;-61
2023/07/07 02:38:47;;;;;;;0.98;0.80;;;;;;;22.21;41.44;100980.94;4512471;28;20065;-60
2023/07/07 02:40:58;;;;;;;0.70;0.60;;;;;;;22.18;41.41;100981.66;4527300;28;20045;-60
2023/07/07 02:43:09;;;;;;;0.70;0.70;;;;;;;22.21;41.25;100988.75;4528870;28;20047;-60
2023/07/07 02:45:19;;;;;;;0.80;0.80;;;;;;;22.19;40.87;100980.50;4510338;28;20069;-61
2023/07/07 02:47:29;;;;;;;0.68;0.63;;;;;;;22.21;40.98;100983.81;4527314;28;20048;-60
2023/07/07 02:49:40;;;;;;;0.82;0.80;;;;;;;22.21;41.12;100980.94;4499379;28;20048;-60
2023/07/07 02:51:50;;;;;;;0.68;0.65;;;;;;;22.23;40.98;100984.28;4528723;28;20037;-60
2023/07/07 02:54:01;;;;;;;0.77;0.70;;;;;;;22.11;40.63;100970.00;4526349;28;20465;-60
2023/07/07 02:56:11;;;;;;;0.70;0.70;;;;;;;22.20;41.15;100979.28;4528010;28;20036;-60
2023/07/07 02:58:22;;;;;;;0.50;0.50;;;;;;;22.20;40.58;100979.28;4509538;28;20037;-60
2023/07/07 03:00:33;;;;;;;0.70;0.70;;;;;;;22.20;40.46;100985.03;4526936;28;20040;-60
2023/07/07 03:02:43;;;;;;;0.70;0.70;;;;;;;22.20;40.88;100987.06;4526569;28;20022;-60
2023/07/07 03:04:53;;;;;;;0.60;0.60;;;;;;;22.18;40.52;100986.59;4527348;28;20047;-60
2023/07/07 03:07:04;;;;;;;0.70;0.70;;;;;;;22.20;40.67;100984.19;4515671;28;20034;-60
2023/07/07 03:09:15;;;;;;;1.08;0.70;;;;;;;22.17;40.46;100991.50;4511533;28;20049;-60
2023/07/07 03:11:29;;;;;;;0.95;0.75;;;;;;;22.13;40.43;100979.09;4526209;28;20033;-60
2023/07/07 03:13:40;;;;;;;0.60;0.60;;;;;;;22.19;40.25;100988.28;4515323;28;20041;-60
2023/07/07 03:15:54;;;;;;;0.70;0.70;;;;;;;22.18;40.80;100986.59;4509840;28;20981;-60
2023/07/07 03:18:09;;;;;;;0.70;0.70;;;;;;;22.17;40.09;100985.75;4517126;28;20080;-61
2023/07/07 03:20:26;;;;;;;1.20;0.80;;;;;;;22.17;40.55;100985.75;4499415;28;20107;-60
2023/07/07 03:22:37;;;;;;;0.80;0.80;;;;;;;22.17;40.77;100985.75;4496343;28;20044;-60
2023/07/07 03:24:51;;;;;;;0.80;0.60;;;;;;;22.15;40.54;100993.91;4529142;28;20048;-60
2023/07/07 03:27:33;;;;;;;0.80;0.80;;;;;;;22.16;40.75;100997.63;4520703;28;22017;-62
2023/07/07 03:29:45;;;;;;;0.70;0.70;;;;;;;22.07;40.98;100986.28;4520385;28;20036;-63
2023/07/07 03:31:58;;;;;;;0.80;0.77;;;;;;;22.09;40.90;100988.78;4530745;28;20690;-62
2023/07/07 03:34:11;;;;;;;0.60;0.60;;;;;;;22.07;40.97;100992.03;4529688;28;20029;-62
2023/07/07 03:36:29;;;;;;;0.60;0.60;;;;;;;22.10;41.05;101004.88;4514383;28;21129;-62
2023/07/07 03:38:40;;;;;;;0.65;0.63;;;;;;;22.07;40.55;101002.72;4530437;28;20029;-62
2023/07/07 03:40:51;;;;;;;0.80;0.70;;;;;;;22.08;40.63;101008.09;4515155;28;20073;-62
2023/07/07 03:43:06;;;;;;;0.70;0.70;;;;;;;22.09;40.96;101006.03;4508378;28;20029;-62
2023/07/07 03:45:18;;;;;;;0.70;0.60;;;;;;;22.06;41.17;101007.63;4512137;28;20818;-62
2023/07/07 03:47:29;;;;;;;0.65;0.65;;;;;;;22.07;40.66;101011.34;4498574;28;20029;-62
2023/07/07 03:49:40;;;;;;;0.63;0.63;;;;;;;22.01;40.79;101009.91;4514874;28;20624;-62
2023/07/07 03:51:51;;;;;;;0.90;0.80;;;;;;;22.06;40.71;101015.41;4513039;28;20161;-62
2023/07/07 03:54:03;;;;;;;0.60;0.60;;;;;;;22.05;41.12;101022.38;4510894;28;20044;-62
2023/07/07 03:56:15;;;;;;;0.60;0.60;;;;;;;22.05;41.02;101019.50;4508198;28;20036;-62
2023/07/07 03:58:27;;;;;;;0.70;0.70;;;;;;;22.03;41.03;101011.25;4519651;28;20038;-62
2023/07/07 04:00:37;;;;;;;0.70;0.70;;;;;;;22.01;41.12;101021.41;4529633;28;20029;-62
2023/07/07 04:02:48;;;;;;;0.80;0.70;;;;;;;22.02;41.27;101021.06;4529797;28;20329;-62
2023/07/07 04:04:58;;;;;;;0.90;0.73;;;;;;;22.01;41.05;101036.63;4507297;28;20539;-62
2023/07/07 04:07:09;;;;;;;0.70;0.70;;;;;;;21.96;41.08;101022.53;4520058;28;20087;-62
2023/07/07 04:09:20;;;;;;;0.60;0.60;;;;;;;21.99;41.08;101029.59;4503416;28;20030;-62
2023/07/07 04:11:31;;;;;;;0.68;0.60;;;;;;;21.99;40.82;101030.41;4530345;28;20044;-62
2023/07/07 04:13:43;;;;;;;0.60;0.60;;;;;;;21.99;40.73;101032.47;4529046;28;20804;-62
2023/07/07 04:16:12;;;;;;;1.10;0.70;;;;;;;21.98;40.82;101037.38;4528154;28;20557;-62
2023/07/07 04:18:22;;;;;;;0.70;0.70;;;;;;;21.99;41.47;101029.59;4528084;28;20044;-62
2023/07/07 04:20:33;;;;;;;0.95;0.80;;;;;;;21.96;41.41;101031.16;4529540;28;20497;-62
2023/07/07 04:22:43;;;;;;;1.00;0.90;;;;;;;21.95;41.74;101028.63;4512115;28;20030;-62
2023/07/07 04:25:26;;;;;;;1.35;0.85;;;;;;;21.95;42.11;101035.22;4525799;28;20045;-62
2023/07/07 04:27:37;;;;;;;0.95;0.85;;;;;;;21.96;42.42;101036.09;4484487;28;20104;-62
2023/07/07 04:29:47;;;;;;;1.27;0.80;;;;;;;21.97;42.35;101049.25;4529246;28;20567;-62
2023/07/07 04:31:59;;;;;;;0.70;0.70;;;;;;;21.94;42.49;101045.06;4529865;28;20041;-62
2023/07/07 04:34:09;;;;;;;0.80;0.80;;;;;;;21.92;42.81;101040.88;4529456;28;20041;-62
2023/07/07 04:36:21;;;;;;;0.85;0.60;;;;;;;21.97;42.62;101057.84;4529776;28;20173;-62
2023/07/07 04:38:32;;;;;;;0.75;0.70;;;;;;;21.90;42.68;101040.38;4518508;28;20134;-62
2023/07/07 04:40:42;;;;;;;1.48;0.70;;;;;;;21.90;42.96;101049.00;4529721;28;20042;-62
2023/07/07 04:42:53;;;;;;;0.93;0.73;;;;;;;21.92;42.61;101053.22;4530333;28;20104;-62
2023/07/07 04:45:03;;;;;;;0.70;0.70;;;;;;;21.92;42.60;101058.13;4530011;28;20495;-62
2023/07/07 04:47:14;;;;;;;1.00;0.73;;;;;;;21.93;42.83;101057.75;4529806;28;20041;-62
2023/07/07 04:49:24;;;;;;;0.70;0.70;;;;;;;21.87;43.28;101050.59;4530586;28;20062;-62
2023/07/07 04:51:40;;;;;;;0.70;0.70;;;;;;;21.90;43.30;101055.59;4530101;28;20102;-62
2023/07/07 04:53:51;;;;;;;1.48;0.70;;;;;;;21.91;42.99;101056.47;4527120;28;20943;-62
2023/07/07 04:56:06;;;;;;;0.70;0.68;;;;;;;21.91;43.41;101051.53;4528691;28;20040;-62
2023/07/07 04:58:17;;;;;;;1.00;0.63;;;;;;;21.89;43.22;101048.19;4529514;28;20034;-62
2023/07/07 05:00:27;;;;;;;0.70;0.70;;;;;;;21.89;43.17;101053.94;4528005;28;20064;-62
2023/07/07 05:02:37;;;;;;;0.98;0.70;;;;;;;21.88;43.39;101055.13;4529560;28;20040;-62
2023/07/07 05:04:48;;;;;;;1.15;0.70;;;;;;;21.89;43.47;101053.94;4528715;28;20037;-62
2023/07/07 05:06:59;;;;;;;1.25;0.73;;;;;;;21.91;44.02;101062.19;4510098;28;20041;-62
2023/07/07 05:09:10;;;;;;;0.90;0.80;;;;;;;21.87;43.75;101053.47;4528651;28;20129;-62
2023/07/07 05:11:24;;;;;;;0.70;0.70;;;;;;;21.88;44.68;101065.81;4528205;28;20044;-62
2023/07/07 05:13:34;;;;;;;0.70;0.70;;;;;;;21.87;44.92;101064.97;4529548;28;20033;-62
2023/07/07 05:15:44;;;;;;;0.70;0.70;;;;;;;21.88;44.75;101066.63;4528758;28;20021;-61
2023/07/07 05:17:55;;;;;;;1.02;0.70;;;;;;;21.84;45.15;101064.84;4529333;28;20143;-62
2023/07/07 05:20:06;;;;;;;0.60;0.60;;;;;;;21.86;45.71;101062.44;4529297;28;20065;-62
2023/07/07 05:22:17;;;;;;;0.80;0.80;;;;;;;21.84;45.43;101050.47;4529468;28;20029;-62
2023/07/07 05:24:27;;;;;;;1.35;0.70;;;;;;;21.82;45.37;101047.97;4528600;28;20037;-62
2023/07/07 05:26:38;;;;;;;0.90;0.70;;;;;;;21.86;45.53;101069.06;4528658;28;20041;-62
2023/07/07 05:28:51;;;;;;;0.70;0.70;;;;;;;21.88;45.81;101066.63;4529110;28;20815;-61
2023/07/07 05:31:02;;;;;;;0.70;0.70;;;;;;;21.85;46.12;101064.47;4527815;28;20485;-62
2023/07/07 05:33:14;;;;;;;0.85;0.70;;;;;;;21.87;45.75;101061.25;4530186;28;20037;-62
2023/07/07 05:35:24;;;;;;;1.50;0.85;;;;;;;21.87;46.32;101069.88;4529532;28;21524;-62
2023/07/07 05:37:35;;;;;;;0.90;0.70;;;;;;;21.86;46.83;101069.06;4529472;28;20037;-62
2023/07/07 05:39:48;;;;;;;1.15;0.63;;;;;;;21.87;47.40;101070.72;4530301;28;20060;-62
2023/07/07 05:41:59;;;;;;;0.50;0.50;;;;;;;21.84;46.88;101068.56;4528894;28;20029;-62
2023/07/07 05:44:09;;;;;;;0.70;0.70;;;;;;;21.83;46.82;101061.16;4513314;28;20033;-62
2023/07/07 05:46:20;;;;;;;0.70;0.68;;;;;;;21.80;47.17;101055.31;4528838;28;20033;-62
2023/07/07 05:48:31;;;;;;;0.70;0.60;;;;;;;21.86;47.43;101071.06;4528210;28;20037;-62
2023/07/07 05:50:46;;;;;;;0.85;0.80;;;;;;;21.85;47.39;101064.47;4511771;28;20360;-62
2023/07/07 05:52:57;;;;;;;0.88;0.70;;;;;;;21.86;47.81;101066.19;4526922;28;21646;-62
2023/07/07 05:55:25;;;;;;;1.15;0.70;;;;;;;21.87;47.74;101055.50;4527741;28;20069;-62
2023/07/07 05:57:35;;;;;;;0.85;0.70;;;;;;;21.88;48.29;101071.56;4527678;28;20041;-61
2023/07/07 05:59:45;;;;;;;0.73;0.60;;;;;;;21.86;48.38;101065.31;4527063;28;20041;-62
2023/07/07 06:01:56;;;;;;;0.60;0.60;;;;;;;21.83;48.28;101063.19;4527597;28;20041;-62
2023/07/07 06:04:06;;;;;;;0.80;0.50;;;;;;;21.85;48.53;101064.47;4528413;28;20478;-62
2023/07/07 06:06:17;;;;;;;0.73;0.50;;;;;;;21.87;48.31;101067.84;4528423;28;20399;-62
2023/07/07 06:08:27;;;;;;;0.57;0.47;;;;;;;21.89;48.23;101065.44;4527701;28;20041;-62
2023/07/07 06:10:38;;;;;;;0.50;0.50;;;;;;;21.90;47.76;101075.72;4528275;28;20044;-62
2023/07/07 06:12:48;;;;;;;0.60;0.60;;;;;;;21.87;47.87;101070.72;4530003;28;20520;-62
2023/07/07 06:14:59;;;;;;;0.70;0.70;;;;;;;21.90;47.89;101072.84;4528980;28;20097;-62
2023/07/07 06:17:09;;;;;;;0.60;0.60;;;;;;;21.90;47.73;101072.84;4499974;28;20136;-62
2023/07/07 06:19:20;;;;;;;0.60;0.60;;;;;;;21.93;47.92;101083.63;4512431;28;20049;-62
2023/07/07 06:21:30;;;;;;;0.60;0.52;;;;;;;21.94;48.27;101072.97;4527926;28;20494;-62
2023/07/07 06:23:42;;;;;;;0.60;0.60;;;;;;;21.91;48.10;101073.69;4527941;28;20037;-63
2023/07/07 06:25:52;;;;;;;0.80;0.60;;;;;;;21.92;48.29;101072.47;4528321;28;20025;-62
2023/07/07 06:28:03;;;;;;;1.15;0.60;;;;;;;21.91;48.55;101073.69;4527292;28;20394;-63
2023/07/07 06:30:14;;;;;;;0.65;0.65;;;;;;;21.93;48.07;101075.00;4526524;28;20037;-66
2023/07/07 06:32:24;;;;;;;0.82;0.80;;;;;;;21.95;48.33;101084.09;4527716;28;20168;-65
2023/07/07 06:34:35;;;;;;;0.88;0.60;;;;;;;21.93;48.42;101077.88;4528469;28;20025;-63
2023/07/07 06:36:45;;;;;;;0.63;0.60;;;;;;;21.90;48.31;101072.00;4527862;28;20034;-64
2023/07/07 06:38:56;;;;;;;1.13;0.63;;;;;;;21.94;48.23;101081.59;4527622;28;20107;-65
2023/07/07 06:41:10;;;;;;;0.60;0.60;;;;;;;21.83;48.37;101061.16;4527792;28;20521;-63
2023/07/07 06:43:21;;;;;;;0.98;0.70;;;;;;;21.95;48.25;101086.13;4526030;28;20116;-63
2023/07/07 06:45:31;;;;;;;1.38;0.70;;;;;;;21.96;48.22;101093.56;4526961;28;20337;-61
2023/07/07 06:47:42;;;;;;;0.57;0.50;;;;;;;21.94;47.63;101088.19;4527125;28;20021;-61
2023/07/07 06:49:52;;;;;;;0.80;0.70;;;;;;;21.95;47.73;101083.25;4509911;28;20045;-62
2023/07/07 06:52:03;;;;;;;0.70;0.70;;;;;;;21.95;47.90;101086.97;4527388;28;20038;-61
2023/07/07 06:54:13;;;;;;;0.50;0.50;;;;;;;21.92;47.32;101073.34;4527196;28;20026;-61
2023/07/07 06:56:24;;;;;;;0.60;0.60;;;;;;;21.90;48.00;101075.72;4528549;28;20116;-61
2023/07/07 06:58:34;;;;;;;0.65;0.50;;;;;;;21.94;47.76;101081.59;4526371;28;20098;-61
2023/07/07 07:00:45;;;;;;;0.60;0.60;;;;;;;21.96;46.90;101084.94;4528274;28;20500;-63
2023/07/07 07:02:55;;;;;;;1.15;0.60;;;;;;;21.93;47.40;101077.88;4528033;28;20087;-62
2023/07/07 07:05:06;;;;;;;1.20;0.70;;;;;;;21.96;47.53;101088.63;4526426;28;20064;-63
2023/07/07 07:07:16;;;;;;;0.68;0.60;;;;;;;21.91;47.79;101071.63;4527366;28;20048;-65
2023/07/07 07:09:27;;;;;;;0.55;0.45;;;;;;;21.95;47.49;101083.25;4528135;28;20094;-64
2023/07/07 07:11:38;;;;;;;0.70;0.63;;;;;;;21.96;47.87;101082.88;4529792;28;20124;-65
2023/07/07 07:13:48;;;;;;;0.60;0.60;;;;;;;21.96;48.24;101080.00;4529827;28;20021;-65
2023/07/07 07:15:59;;;;;;;0.50;0.50;;;;;;;21.95;49.08;101084.09;4529927;28;20041;-65
2023/07/07 07:18:12;;;;;;;1.42;0.70;;;;;;;21.94;48.55;101078.72;4529988;28;20041;-61
2023/07/07 07:20:22;;;;;;;0.68;0.50;;;;;;;21.97;49.11;101084.56;4528795;28;20033;-61
2023/07/07 07:22:33;;;;;;;0.60;0.50;;;;;;;21.97;49.03;101084.56;4531373;28;20037;-61
2023/07/07 07:24:43;;;;;;;0.88;0.60;;;;;;;21.94;48.12;101081.59;4527588;28;20512;-60
2023/07/07 07:26:54;;;;;;;0.60;0.60;;;;;;;21.94;48.78;101079.56;4528710;28;20049;-61
2023/07/07 07:29:04;;;;;;;0.50;0.40;;;;;;;21.97;47.99;101087.44;4531623;28;20492;-61
2023/07/07 07:31:15;;;;;;;0.50;0.50;;;;;;;21.98;48.05;101088.25;4501711;28;20551;-61
2023/07/07 07:33:26;;;;;;;0.85;0.63;;;;;;;21.97;47.75;101096.06;4528950;28;20119;-61
2023/07/07 07:35:36;;;;;;;0.95;0.50;;;;;;;21.92;47.85;101079.09;4527929;28;20033;-61
2023/07/07 07:37:47;;;;;;;0.73;0.50;;;;;;;21.98;47.76;101091.97;4516679;28;20077;-61
2023/07/07 07:39:57;;;;;;;0.85;0.50;;;;;;;21.99;47.87;101090.78;4527985;28;20132;-62
2023/07/07 07:42:08;;;;;;;1.08;0.60;;;;;;;21.98;47.40;101086.22;4530239;28;20124;-61
2023/07/07 07:44:21;;;;;;;0.70;0.55;;;;;;;21.98;49.14;101086.22;4528831;28;20123;-61
2023/07/07 07:46:31;;;;;;;0.55;0.55;;;;;;;21.90;48.39;101069.97;4529451;28;20040;-61
2023/07/07 07:48:41;;;;;;;0.47;0.47;;;;;;;21.99;48.63;101087.09;4530920;28;20034;-61
2023/07/07 07:50:52;;;;;;;0.52;0.50;;;;;;;22.00;48.26;101095.34;4528630;28;20037;-61
2023/07/07 07:53:02;;;;;;;0.40;0.40;;;;;;;22.00;47.29;101089.59;4527525;28;20149;-61
2023/07/07 07:55:14;;;;;;;0.63;0.40;;;;;;;21.99;46.85;101093.66;4516423;28;20039;-62
2023/07/07 07:57:24;;;;;;;0.68;0.60;;;;;;;22.00;46.97;101088.75;4530667;28;20048;-62
2023/07/07 07:59:35;;;;;;;0.68;0.50;;;;;;;21.97;47.47;101086.59;4530351;28;20056;-62
2023/07/07 08:01:45;;;;;;;0.85;0.60;;;;;;;21.99;48.34;101090.78;4527311;28;20037;-60
2023/07/07 08:03:56;;;;;;;1.05;0.60;;;;;;;21.99;48.30;101093.66;4530896;28;20037;-61
2023/07/07 08:06:06;;;;;;;0.70;0.50;;;;;;;21.99;47.53;101093.66;4534186;28;20112;-60
2023/07/07 08:08:17;;;;;;;0.52;0.50;;;;;;;21.96;47.57;101082.88;4532021;28;20168;-61
2023/07/07 08:10:27;;;;;;;0.50;0.50;;;;;;;21.99;48.00;101090.78;4531530;28;20045;-61
2023/07/07 08:12:37;;;;;;;0.63;0.60;;;;;;;21.99;48.07;101085.03;4529661;28;20041;-61
2023/07/07 08:14:48;;;;;;;0.43;0.40;;;;;;;22.00;48.15;101095.34;4530133;28;20321;-61
2023/07/07 08:17:11;;;;;;;0.43;0.43;;;;;;;22.00;47.90;101094.50;4529966;28;20036;-61
2023/07/07 08:19:22;;;;;;;0.50;0.50;;;;;;;21.96;48.14;101082.88;4529255;28;21294;-61
2023/07/07 08:21:32;;;;;;;0.82;0.63;;;;;;;22.01;48.61;101091.25;4529713;28;20044;-61
2023/07/07 08:23:43;;;;;;;0.63;0.60;;;;;;;22.00;48.56;101083.00;4529416;28;20071;-61
2023/07/07 08:25:53;;;;;;;0.40;0.40;;;;;;;21.99;48.31;101087.91;4530231;28;20116;-61
2023/07/07 08:28:04;;;;;;;0.50;0.50;;;;;;;21.99;47.60;101093.66;4529890;28;20040;-62
2023/07/07 08:30:14;;;;;;;0.98;0.50;;;;;;;22.01;46.03;101091.25;4527872;28;20119;-61
2023/07/07 08:32:25;;;;;;;0.50;0.50;;;;;;;21.95;45.39;101081.22;4530247;28;21174;-61
2023/07/07 08:34:35;;;;;;;0.50;0.50;;;;;;;21.85;44.33;101067.34;4529550;28;20409;-61
2023/07/07 08:36:47;;;;;;;0.60;0.50;;;;;;;21.98;44.35;101089.09;4528156;28;20037;-61
2023/07/07 08:39:18;;;;;;;0.40;0.40;;;;;;;21.98;45.80;101086.22;4508564;28;20044;-61
2023/07/07 08:41:29;;;;;;;0.57;0.57;;;;;;;21.99;45.79;101090.78;4529590;28;20034;-61
2023/07/07 08:43:39;;;;;;;0.77;0.60;;;;;;;21.98;46.19;101094.84;4519119;28;20029;-61
2023/07/07 08:46:13;;;;;;;0.47;0.47;;;;;;;21.98;46.35;101097.72;4524132;28;20034;-63
2023/07/07 08:48:32;;;;;;;2.78;1.20;;;;;;;22.00;46.40;101106.00;4529527;28;20668;-61
2023/07/07 08:50:50;;;;;;;1.00;0.70;;;;;;;21.94;46.71;101091.06;4512940;28;21063;-61
2023/07/07 08:53:43;;;;;;;0.65;0.50;;;;;;;22.00;46.69;101100.25;4528684;28;20050;-61
2023/07/07 08:56:15;;;;;;;0.68;0.50;;;;;;;21.99;46.28;101099.41;4512821;28;20037;-60
2023/07/07 08:58:34;;;;;;;0.88;0.57;;;;;;;21.98;44.82;101091.97;4525797;28;20042;-61
2023/07/07 09:01:08;;;;;;;0.50;0.50;;;;;;;21.99;42.70;101104.31;4513443;28;20053;-61
2023/07/07 09:03:23;;;;;;;0.50;0.50;;;;;;;21.99;42.88;101104.31;4529879;28;20143;-61
2023/07/07 09:06:14;;;;;;;0.63;0.60;;;;;;;21.94;43.61;101098.84;4529748;28;20685;-61
2023/07/07 09:08:32;;;;;;;0.50;0.50;;;;;;;21.96;42.99;101103.00;4530201;28;20041;-61
2023/07/07 09:11:19;;;;;;;0.55;0.47;;;;;;;21.98;43.87;101103.47;4530732;28;20033;-62
2023/07/07 09:13:34;;;;;;;0.80;0.80;;;;;;;22.00;45.26;101106.00;4535556;28;20039;-61
2023/07/07 09:16:11;;;;;;;0.50;0.50;;;;;;;21.99;44.19;101110.91;4531322;28;20035;-61
2023/07/07 09:18:49;;;;;;;0.50;0.50;;;;;;;22.00;44.86;101100.25;4519202;28;20049;-61
2023/07/07 09:21:03;;;;;;;0.63;0.60;;;;;;;21.97;45.62;101098.94;4531758;28;20041;-61
2023/07/07 09:23:20;;;;;;;0.60;0.50;;;;;;;21.98;43.40;101103.47;4531619;28;20047;-61
2023/07/07 09:25:42;;;;;;;0.45;0.45;;;;;;;21.99;44.23;101095.72;4513796;28;20041;-61
2023/07/07 09:28:02;;;;;;;1.02;0.68;;;;;;;22.00;44.69;101101.09;4530497;28;20108;-62
2023/07/07 09:30:39;;;;;;;0.75;0.60;;;;;;;22.01;44.48;101102.75;4531503;28;20033;-61
2023/07/07 09:32:49;;;;;;;0.70;0.70;;;;;;;22.00;43.82;101112.59;4530130;28;20033;-61
2023/07/07 09:34:59;;;;;;;1.05;0.57;;;;;;;21.99;43.76;101108.03;4520836;28;20042;-62
2023/07/07 09:37:22;;;;;;;0.60;0.50;;;;;;;22.02;43.37;101112.22;4529737;28;20483;-62
2023/07/07 09:39:44;;;;;;;0.50;0.50;;;;;;;22.02;43.18;101107.28;4531970;28;20671;-61
2023/07/07 09:42:01;;;;;;;0.60;0.50;;;;;;;22.02;42.43;101110.16;4530062;28;20567;-63
2023/07/07 09:44:23;;;;;;;0.77;0.60;;;;;;;22.00;43.01;101098.22;4529159;28;20053;-62
2023/07/07 09:46:58;;;;;;;0.68;0.55;;;;;;;22.03;41.62;101100.34;4530713;28;20037;-61
2023/07/07 09:49:22;;;;;;;5.47;1.60;;;;;;;22.18;49.69;101093.00;4530910;28;20037;-63
2023/07/07 09:51:46;;;;;;;5.68;1.17;;;;;;;22.33;49.38;101097.09;4532761;28;20114;-66
2023/07/07 09:53:57;;;;;;;4.40;1.10;;;;;;;22.37;49.40;101098.03;4532223;28;20037;-62
2023/07/07 09:56:15;;;;;;;5.90;1.30;;;;;;;22.36;48.74;101097.19;4520334;28;20041;-61
2023/07/07 09:58:34;;;;;;;4.35;1.10;;;;;;;22.44;48.57;101092.50;4531487;28;20033;-61
2023/07/07 10:00:48;;;;;;;5.65;1.02;;;;;;;22.47;48.71;101100.41;4531074;28;20052;-61
2023/07/07 10:02:59;;;;;;;3.35;1.00;;;;;;;22.43;48.77;101080.16;4530830;28;20045;-61
2023/07/07 10:05:11;;;;;;;3.30;1.20;;;;;;;22.50;48.95;101094.72;4532112;28;20041;-61
2023/07/07 10:07:23;;;;;;;3.78;1.48;;;;;;;22.50;50.34;101091.03;4520319;28;20085;-61
2023/07/07 10:09:34;;;;;;;10.88;2.10;;;;;;;22.53;50.84;101087.44;4529822;28;21150;-61
2023/07/07 10:11:45;;;;;;;10.80;2.92;;;;;;;22.58;51.27;101088.00;4528364;28;20029;-62
2023/07/07 10:13:57;;;;;;;5.32;2.40;;;;;;;22.63;50.57;101086.91;4528861;28;20608;-61
2023/07/07 10:16:22;;;;;;;10.38;2.30;;;;;;;22.70;49.96;101093.69;4512530;28;20132;-62
2023/07/07 10:18:33;;;;;;;10.98;2.63;;;;;;;22.72;49.66;101082.63;4528048;28;20036;-61
2023/07/07 10:20:43;;;;;;;9.65;2.75;;;;;;;22.76;49.07;101089.31;4528835;28;20048;-62
2023/07/07 10:22:54;;;;;;;10.52;2.50;;;;;;;22.77;49.24;101084.41;4528457;28;20037;-62